Visit other weathersites:

Galway City Weather

Moycullen Weather

Waterford City Weather

Charlestown Weather

Clevedon Weather



Nearby METAR Reports

   
EBAW - Antwerp
Updated: 23-11-2017 03:20
Clear  
Clear  
   Wind: South 27.8 km/h
Wind: South 27.8 km/h
Temperature: 14°C
Dew Point: 3°C
Humidity: 48%
Barometer: 997 hPa
Visibility: More than 10 km
Cloud details: Clear
EBAW 230320Z AUTO 19015KT CAVOK 14/03 Q0997
EBLG - Li├Ęge
Updated: 23-11-2017 03:20
Clear  
Clear  
   Wind: South 33.3 km/h
Wind: South 33.3 km/h
Temperature: 11°C
Dew Point: 3°C
Humidity: 58%
Barometer: 1000 hPa
Visibility: More than 10 km
Cloud details: Clear
EBLG 230320Z 19018KT CAVOK 11/03 Q1000 NOSIG
EBCV - Mons/Bergen
Updated: 23-11-2017 03:25
Overcast  
Overcast  
   Wind: South 33.3 km/h
Wind: South 33.3 km/h
Temperature: 12°C
Dew Point: 5°C
Humidity: 63%
Barometer: 998 hPa
Clouds: Overcast
Visibility: More than 10 km
Cloud details: Overcast 3048 m
EBCV 230325Z AUTO 18018KT 9999 OVC100/// 12/05 Q0998 BLU
EHBK - Maastricht
Updated: 23-11-2017 03:25
Partly Cloudy  
Partly Cloudy  
   Wind: South 35.2 km/h
Wind: South 35.2 km/h
Temperature: 11°C
Dew Point: 4°C
Humidity: 62%
Barometer: 1000 hPa
Clouds: Partly Cloudy
Visibility: More than 10 km
Cloud details: Partly Cloudy
EHBK 230325Z AUTO 19019KT 160V220 9999 NSC 11/04 Q1000
ELLX - Luxemburg
Updated: 23-11-2017 03:20
Clear  
Clear  
   Wind: South 14.8 km/h
Wind: South 14.8 km/h
Temperature: 6°C
Wind Chill: 3°C
Dew Point: 5°C
Humidity: 93%
Barometer: 1005 hPa
Visibility: More than 10 km
Cloud details: Clear
ELLX 230320Z 17008KT 130V190 CAVOK 06/05 Q1005 NOSIG
EBOS - Oostende
Updated: 23-11-2017 03:20
Clear  
Clear  
   Wind: South 31.5 km/h
Wind: South 31.5 km/h
Temperature: 12°C
Dew Point: 5°C
Humidity: 63%
Barometer: 994 hPa
Visibility: More than 10 km
Cloud details: Clear
EBOS 230320Z 18017KT CAVOK 12/05 Q0994 TEMPO 18022G35KT

Script developed by  Saratoga-weather.org Adapted for the template by  Weerstation Leuven

You find our weather info also at:

UK Metoffice

European Weather Network

Weather Underground

Equipment we use:

Weather-station
Davis Vantage Vue

Weather-program
Weather Display

Weather-server
Dell 3050 Micro Desktop

Provider
RS Hosting

Davis Vantage Vue

Weather Display

Dell 3050 Micro Desktop

RS Hosting